Pagina principale
METAR-TAF:

METAR-TAF

Aeroporti :

Aeroporto internazionale di Banja Luka

Banja Luka, Bosnia-Erzegovina

latitudine: 44-47N, longitudine: 017-13E, altezza: 156 m

Osservazione

Il bollettino è stato emesso 24 minuti fa, alle 09:30 UTC
Vento 2 kt da direzioni variabili
Temperature 16°C
Umidità 68%
Pressione 1023 hPa
Visibilità 10 km o più
nessuna nube inferiore a 1500 m e nessun cumulonembo

METAR: LQBK 310930Z VRB02KT CAVOK 16/10 Q1023 NOSIG

Ora: 10:54 (09:54 UTC)

Previsione

Il bollettino è stato emesso 4 ore e 54 minuti fa, alle 05:00 UTC
Previsione valida dal 31 alle 06 UTC al 01 alle 06 UTC
Vento 2 kt da direzioni variabili
Visibilità 10 km o più
nessuna nube inferiore a 1500 m e nessun cumulonembo
Probabilità 40% :
Temporaneamente
dal 01 alle 00 UTC al 01 alle 06 UTC
Visibilità: 3000 m
foschia

TAF: LQBK 310500Z 3106/0106 VRB02KT CAVOK TX18/3113Z TN08/0105Z PROB40 TEMPO 0100/0106 3000 BR

Osservazioni e previsioni meteorologiche di più di 4000 aeroporti (messaggi METAR e TAF).

Le stazioni disponibili sono rappresentate dai dischi gialli e rossi sulla carta.

Puntare il mouse per vedere il nome della stazione.

Clicca sopra per visualizzare le osservazioni e previsioni meteorologiche.

Per cambiare la mappa : fare clic sui pulsanti verdi con una croce nera per ingrandire, il pulsante verde con un trattino per diminuire, o sulla freccia verde per le mappe adiacenti.


METAR-TAF: